createdAt,value
2023-01-15T00:00:50.644Z,100658.75
2023-01-15T00:04:14.096Z,100658.47
2023-01-15T00:07:16.634Z,100658.66
2023-01-15T00:10:19.968Z,100658.75
2023-01-15T00:13:23.053Z,100660.66
2023-01-15T00:16:27.654Z,100653.59
2023-01-15T00:19:30.270Z,100648.81
2023-01-15T00:22:33.393Z,100650.41
2023-01-15T00:25:54.685Z,100651.31
2023-01-15T00:28:57.869Z,100645.03
2023-01-15T00:32:08.494Z,100641.56
2023-01-15T00:35:17.456Z,100646.81
2023-01-15T00:38:20.023Z,100634.91
2023-01-15T00:41:23.581Z,100639.63
2023-01-15T00:44:26.119Z,100635.34
2023-01-15T00:47:29.267Z,100627.16
2023-01-15T00:50:31.959Z,100626.13
2023-01-15T00:53:35.151Z,100623.75
2023-01-15T00:56:37.690Z,100627.53
2023-01-15T00:59:40.911Z,100629.12
2023-01-15T01:02:43.519Z,100632.25
2023-01-15T01:05:46.706Z,100628.06
2023-01-15T01:08:49.405Z,100622.12
2023-01-15T01:11:52.542Z,100618.62
2023-01-15T01:14:55.064Z,100620.13
2023-01-15T01:17:58.140Z,100606.00
2023-01-15T01:21:04.935Z,100610.37
2023-01-15T01:24:10.573Z,100613.03
2023-01-15T01:27:13.100Z,100618.00
2023-01-15T01:30:16.525Z,100618.00
2023-01-15T01:33:19.097Z,100616.50
2023-01-15T01:36:28.589Z,100595.09
2023-01-15T01:39:31.134Z,100601.12
2023-01-15T01:42:34.383Z,100602.72
2023-01-15T01:45:36.946Z,100603.06
2023-01-15T01:48:40.073Z,100602.87
2023-01-15T01:51:50.589Z,100595.72
2023-01-15T01:54:55.678Z,100588.75
2023-01-15T01:58:00.879Z,100577.78
2023-01-15T02:01:05.237Z,100572.41
2023-01-15T02:04:10.584Z,100563.25
2023-01-15T02:07:13.488Z,100562.59
2023-01-15T02:10:17.009Z,100557.53
2023-01-15T02:13:25.895Z,100557.72
2023-01-15T02:16:43.526Z,100556.28
2023-01-15T02:20:01.956Z,100547.62
2023-01-15T02:23:33.584Z,100541.19
2023-01-15T02:27:02.345Z,100538.94
2023-01-15T02:30:11.995Z,100535.34
2023-01-15T02:33:21.532Z,100544.88
2023-01-15T02:36:28.899Z,100546.34
2023-01-15T02:39:34.723Z,100536.31
2023-01-15T02:42:40.972Z,100535.31
2023-01-15T02:45:49.475Z,100515.56
2023-01-15T02:48:55.592Z,100515.97
2023-01-15T02:52:09.149Z,100517.53
2023-01-15T02:55:26.174Z,100516.28
2023-01-15T02:58:33.693Z,100508.13
2023-01-15T03:01:45.484Z,100509.88
2023-01-15T03:04:56.608Z,100517.50
2023-01-15T03:08:04.864Z,100513.38
2023-01-15T03:11:11.299Z,100500.69
2023-01-15T03:14:21.813Z,100497.06
2023-01-15T03:17:47.147Z,100496.28
2023-01-15T03:20:55.739Z,100511.53
2023-01-15T03:24:02.217Z,100511.06
2023-01-15T03:27:08.185Z,100497.06
2023-01-15T03:30:19.056Z,100492.72
2023-01-15T03:33:22.108Z,100487.06
2023-01-15T03:36:25.811Z,100484.72
2023-01-15T03:39:29.962Z,100485.00
2023-01-15T03:43:14.622Z,100486.47
2023-01-15T03:46:32.990Z,100481.09
2023-01-15T03:50:04.805Z,100483.56
2023-01-15T03:53:20.101Z,100481.97
2023-01-15T03:56:48.346Z,100477.81
2023-01-15T03:59:59.248Z,100473.66
2023-01-15T04:03:06.555Z,100480.34
2023-01-15T04:06:10.580Z,100485.59
2023-01-15T04:09:15.030Z,100493.66
2023-01-15T04:12:18.871Z,100484.00
2023-01-15T04:15:22.684Z,100484.00
2023-01-15T04:18:25.869Z,100486.69
2023-01-15T04:21:29.990Z,100472.16
2023-01-15T04:24:36.265Z,100475.50
2023-01-15T04:27:39.038Z,100477.31
2023-01-15T04:30:43.718Z,100485.31
2023-01-15T04:33:46.696Z,100459.88
2023-01-15T04:36:49.545Z,100456.63
2023-01-15T04:39:52.361Z,100449.88
2023-01-15T04:43:14.944Z,100457.50
2023-01-15T04:46:24.141Z,100456.12
2023-01-15T04:49:27.543Z,100464.06
2023-01-15T04:52:30.372Z,100454.34
2023-01-15T04:55:34.043Z,100459.50
2023-01-15T04:58:37.358Z,100471.81
2023-01-15T05:01:42.812Z,100467.41
2023-01-15T05:04:50.661Z,100468.13
2023-01-15T05:07:54.097Z,100457.53
2023-01-15T05:10:57.148Z,100453.06
2023-01-15T05:14:00.105Z,100459.31
2023-01-15T05:17:02.939Z,100452.25
2023-01-15T05:20:06.353Z,100441.28
2023-01-15T05:23:09.312Z,100430.97
2023-01-15T05:26:13.009Z,100435.91
2023-01-15T05:29:15.882Z,100427.37
2023-01-15T05:32:18.700Z,100422.41
2023-01-15T05:35:21.704Z,100421.62
2023-01-15T05:38:24.533Z,100414.88
2023-01-15T05:41:46.202Z,100407.34
2023-01-15T05:44:49.011Z,100406.56
2023-01-15T05:47:53.692Z,100405.75
2023-01-15T05:50:56.592Z,100395.12
2023-01-15T05:53:59.893Z,100398.53
2023-01-15T05:57:03.350Z,100394.25
2023-01-15T06:00:06.405Z,100387.72
2023-01-15T06:03:14.995Z,100387.41
2023-01-15T06:06:19.042Z,100383.16
2023-01-15T06:09:23.210Z,100389.19
2023-01-15T06:12:26.301Z,100373.94
2023-01-15T06:15:28.879Z,100379.37
2023-01-15T06:18:33.573Z,100377.09
2023-01-15T06:21:36.646Z,100378.88
2023-01-15T06:24:39.789Z,100378.19
2023-01-15T06:27:44.535Z,100369.56
2023-01-15T06:30:47.733Z,100379.09
2023-01-15T06:33:50.391Z,100373.41
2023-01-15T06:36:53.693Z,100382.06
2023-01-15T06:39:56.286Z,100378.78
2023-01-15T06:43:18.084Z,100375.53
2023-01-15T06:46:39.593Z,100379.37
2023-01-15T06:49:42.751Z,100368.66
2023-01-15T06:52:45.612Z,100354.78
2023-01-15T06:55:49.060Z,100353.19
2023-01-15T06:58:51.598Z,100344.91
2023-01-15T07:01:54.927Z,100344.34
2023-01-15T07:04:57.844Z,100347.38
2023-01-15T07:08:01.001Z,100355.13
2023-01-15T07:11:09.367Z,100365.66
2023-01-15T07:14:13.673Z,100365.06
2023-01-15T07:17:16.194Z,100355.72
2023-01-15T07:20:21.658Z,100355.91
2023-01-15T07:23:25.807Z,100354.50
2023-01-15T07:26:29.100Z,100350.53
2023-01-15T07:29:31.815Z,100359.16
2023-01-15T07:32:34.989Z,100352.56
2023-01-15T07:35:37.647Z,100352.69
2023-01-15T07:38:40.764Z,100352.78
2023-01-15T07:42:01.783Z,100346.91
2023-01-15T07:45:27.532Z,100346.09
2023-01-15T07:48:48.921Z,100337.66
2023-01-15T07:51:52.017Z,100337.97
2023-01-15T07:54:54.546Z,100332.59
2023-01-15T07:57:57.791Z,100336.34
2023-01-15T08:01:00.632Z,100323.81
2023-01-15T08:04:03.701Z,100326.66
2023-01-15T08:07:06.529Z,100322.75
2023-01-15T08:10:13.705Z,100313.53
2023-01-15T08:13:34.825Z,100329.38
2023-01-15T08:16:38.041Z,100320.62
2023-01-15T08:19:40.596Z,100323.22
2023-01-15T08:22:44.765Z,100308.50
2023-01-15T08:25:47.286Z,100309.66
2023-01-15T08:28:50.356Z,100319.41
2023-01-15T08:31:52.952Z,100310.84
2023-01-15T08:34:56.104Z,100310.78
2023-01-15T08:37:58.657Z,100314.44
2023-01-15T08:41:03.743Z,100332.63
2023-01-15T08:44:06.715Z,100330.19
2023-01-15T08:47:09.891Z,100311.41
2023-01-15T08:50:12.823Z,100309.09
2023-01-15T08:53:16.054Z,100313.53
2023-01-15T08:56:20.698Z,100319.84
2023-01-15T08:59:23.787Z,100312.81
2023-01-15T09:02:27.813Z,100306.41
2023-01-15T09:05:31.036Z,100298.16
2023-01-15T09:08:33.709Z,100295.03
2023-01-15T09:11:37.012Z,100293.66
2023-01-15T09:14:58.154Z,100296.72
2023-01-15T09:18:02.785Z,100281.28
2023-01-15T09:21:06.708Z,100300.63
2023-01-15T09:24:09.807Z,100279.06
2023-01-15T09:27:12.610Z,100273.50
2023-01-15T09:30:20.983Z,100265.91
2023-01-15T09:33:23.700Z,100257.22
2023-01-15T09:36:29.622Z,100259.97
2023-01-15T09:39:32.299Z,100261.31
2023-01-15T09:42:35.325Z,100251.31
2023-01-15T09:45:44.243Z,100236.50
2023-01-15T09:49:11.076Z,100233.31
2023-01-15T09:52:30.809Z,100229.44
2023-01-15T09:55:41.490Z,100215.00
2023-01-15T09:58:44.438Z,100220.50
2023-01-15T10:01:50.061Z,100209.91
2023-01-15T10:04:57.619Z,100208.91
2023-01-15T10:08:24.602Z,100195.06
2023-01-15T10:12:03.284Z,100185.16
2023-01-15T10:15:15.121Z,100187.34
2023-01-15T10:18:21.415Z,100172.56
2023-01-15T10:21:42.971Z,100160.88
2023-01-15T10:24:55.992Z,100163.63
2023-01-15T10:28:17.991Z,100157.31
2023-01-15T10:31:24.589Z,100144.16
2023-01-15T10:34:30.385Z,100133.94
2023-01-15T10:37:43.158Z,100101.94
2023-01-15T10:41:32.260Z,100123.72
2023-01-15T10:44:55.013Z,100126.13
2023-01-15T10:48:10.016Z,100109.69
2023-01-15T10:51:20.833Z,100096.19
2023-01-15T10:54:42.553Z,100084.13
2023-01-15T10:58:10.320Z,100087.97
2023-01-15T11:01:19.827Z,100079.41
2023-01-15T11:04:23.705Z,100077.69
2023-01-15T11:07:57.925Z,100068.66
2023-01-15T11:11:57.415Z,100048.25
2023-01-15T11:15:18.891Z,100048.66
2023-01-15T11:18:54.641Z,100055.72
2023-01-15T11:21:57.519Z,100049.31
2023-01-15T11:25:04.106Z,100043.03
2023-01-15T11:28:09.807Z,100042.25
2023-01-15T11:31:14.560Z,100028.25
2023-01-15T11:34:22.306Z,100020.50
2023-01-15T11:37:25.651Z,100020.81
2023-01-15T11:40:28.459Z,100006.94
2023-01-15T11:43:50.389Z,100008.22
2023-01-15T11:47:14.328Z,100013.81
2023-01-15T11:50:37.483Z,99996.25
2023-01-15T11:54:03.647Z,99971.84
2023-01-15T11:57:07.309Z,99955.53
2023-01-15T12:00:23.445Z,99952.09
2023-01-15T12:03:30.415Z,99941.03
2023-01-15T12:06:36.670Z,99934.31
2023-01-15T12:09:49.866Z,99918.41
2023-01-15T12:13:04.777Z,99921.41
2023-01-15T12:16:13.402Z,99917.81
2023-01-15T12:19:40.627Z,99922.97
2023-01-15T12:23:31.300Z,99926.69
2023-01-15T12:26:49.520Z,99929.19
2023-01-15T12:30:00.319Z,99931.78
2023-01-15T12:33:31.041Z,99917.03
2023-01-15T12:36:44.919Z,99919.78
2023-01-15T12:39:52.463Z,99903.09
2023-01-15T12:43:15.293Z,99914.97
2023-01-15T12:46:31.485Z,99919.78
2023-01-15T12:49:45.207Z,99913.31
2023-01-15T12:52:54.748Z,99908.44
2023-01-15T12:56:12.385Z,99907.91
2023-01-15T12:59:26.719Z,99912.09
2023-01-15T13:02:54.565Z,99911.00
2023-01-15T13:06:05.511Z,99884.69
2023-01-15T13:09:44.705Z,99883.41
2023-01-15T13:12:47.851Z,99893.31
2023-01-15T13:16:18.625Z,99879.03
2023-01-15T13:19:49.356Z,99880.25
2023-01-15T13:23:07.707Z,99879.75
2023-01-15T13:26:42.044Z,99877.47
2023-01-15T13:30:15.945Z,99876.12
2023-01-15T13:33:24.801Z,99858.47
2023-01-15T13:36:48.333Z,99857.25
2023-01-15T13:39:56.655Z,99850.06
2023-01-15T13:42:59.790Z,99857.81
2023-01-15T13:46:05.615Z,99854.34
2023-01-15T13:49:20.040Z,99845.44
2023-01-15T13:52:35.422Z,99847.09
2023-01-15T13:55:43.569Z,99842.50
2023-01-15T13:58:56.178Z,99844.03
2023-01-15T14:01:59.111Z,99838.72
2023-01-15T14:05:12.602Z,99830.63
2023-01-15T14:08:17.382Z,99834.78
2023-01-15T14:11:35.911Z,99835.47
2023-01-15T14:15:15.905Z,99841.28
2023-01-15T14:18:40.678Z,99842.00
2023-01-15T14:21:58.406Z,99829.78
2023-01-15T14:25:15.447Z,99825.25
2023-01-15T14:28:29.913Z,99832.81
2023-01-15T14:31:42.841Z,99831.72
2023-01-15T14:34:56.051Z,99827.34
2023-01-15T14:38:05.720Z,99827.34
2023-01-15T14:41:08.376Z,99818.47
2023-01-15T14:44:11.584Z,99814.00
2023-01-15T14:47:28.996Z,99802.78
2023-01-15T14:50:33.793Z,99812.16
2023-01-15T14:53:52.062Z,99811.03
2023-01-15T14:56:59.820Z,99819.78
2023-01-15T15:00:05.344Z,99814.59
2023-01-15T15:03:17.388Z,99810.13
2023-01-15T15:06:21.456Z,99810.06
2023-01-15T15:09:36.662Z,99803.00
2023-01-15T15:13:36.221Z,99809.31
2023-01-15T15:16:47.488Z,99810.06
2023-01-15T15:20:00.850Z,99790.06
2023-01-15T15:23:33.110Z,99790.00
2023-01-15T15:26:38.835Z,99783.09
2023-01-15T15:29:41.993Z,99781.19
2023-01-15T15:32:45.140Z,99774.22
2023-01-15T15:35:58.362Z,99766.31
2023-01-15T15:39:15.735Z,99764.59
2023-01-15T15:42:44.362Z,99765.37
2023-01-15T15:46:14.010Z,99775.72
2023-01-15T15:49:20.267Z,99770.47
2023-01-15T15:52:24.082Z,99766.88
2023-01-15T15:55:42.702Z,99761.59
2023-01-15T15:58:46.513Z,99765.09
2023-01-15T16:01:49.841Z,99768.53
2023-01-15T16:04:59.425Z,99771.16
2023-01-15T16:08:29.805Z,99771.87
2023-01-15T16:11:34.591Z,99759.88
2023-01-15T16:14:38.454Z,99771.13
2023-01-15T16:17:42.919Z,99765.94
2023-01-15T16:20:46.102Z,99764.09
2023-01-15T16:24:03.606Z,99765.75
2023-01-15T16:27:14.439Z,99761.47
2023-01-15T16:30:17.892Z,99754.56
2023-01-15T16:33:20.817Z,99761.47
2023-01-15T16:36:25.551Z,99768.34
2023-01-15T16:39:40.062Z,99763.97
2023-01-15T16:42:44.762Z,99768.22
2023-01-15T16:46:29.016Z,99758.69
2023-01-15T16:49:34.402Z,99761.25
2023-01-15T16:52:51.394Z,99756.84
2023-01-15T16:55:57.050Z,99759.63
2023-01-15T16:58:59.916Z,99760.06
2023-01-15T17:02:02.972Z,99745.78
2023-01-15T17:05:23.657Z,99765.37
2023-01-15T17:08:39.311Z,99757.47
2023-01-15T17:11:42.237Z,99751.25
2023-01-15T17:14:45.135Z,99761.66
2023-01-15T17:17:52.233Z,99755.47
2023-01-15T17:20:56.039Z,99745.53
2023-01-15T17:24:04.143Z,99739.88
2023-01-15T17:27:08.379Z,99745.66
2023-01-15T17:30:15.799Z,99735.16
2023-01-15T17:33:20.943Z,99729.81
2023-01-15T17:36:24.828Z,99739.53
2023-01-15T17:39:28.221Z,99730.62
2023-01-15T17:42:31.527Z,99735.63
2023-01-15T17:45:34.873Z,99742.75
2023-01-15T17:48:39.163Z,99744.34
2023-01-15T17:51:45.415Z,99746.22
2023-01-15T17:55:07.982Z,99745.09
2023-01-15T17:58:32.055Z,99750.28
2023-01-15T18:02:07.473Z,99736.16
2023-01-15T18:05:30.706Z,99737.03
2023-01-15T18:08:34.714Z,99745.50
2023-01-15T18:11:37.946Z,99742.81
2023-01-15T18:14:40.952Z,99742.81
2023-01-15T18:17:44.747Z,99741.84
2023-01-15T18:20:47.583Z,99738.31
2023-01-15T18:23:50.396Z,99739.09
2023-01-15T18:26:53.342Z,99734.25
2023-01-15T18:29:57.503Z,99745.28
2023-01-15T18:33:02.632Z,99738.31
2023-01-15T18:36:12.240Z,99739.94
2023-01-15T18:39:15.375Z,99739.44
2023-01-15T18:42:37.046Z,99741.75
2023-01-15T18:45:58.146Z,99749.37
2023-01-15T18:49:00.986Z,99733.87
2023-01-15T18:52:22.674Z,99739.88
2023-01-15T18:55:28.621Z,99745.94
2023-01-15T18:58:31.490Z,99748.31
2023-01-15T19:01:35.273Z,99748.25
2023-01-15T19:04:38.329Z,99745.66
2023-01-15T19:07:44.954Z,99739.88
2023-01-15T19:10:47.770Z,99747.47
2023-01-15T19:14:10.564Z,99741.28
2023-01-15T19:17:39.222Z,99743.88
2023-01-15T19:20:42.130Z,99737.94
2023-01-15T19:23:44.988Z,99740.72
2023-01-15T19:26:47.881Z,99744.81
2023-01-15T19:29:52.173Z,99749.19
2023-01-15T19:32:56.564Z,99760.47
2023-01-15T19:35:59.565Z,99752.16
2023-01-15T19:39:02.743Z,99744.84
2023-01-15T19:42:24.386Z,99742.59
2023-01-15T19:45:46.475Z,99746.38
2023-01-15T19:49:08.041Z,99738.03
2023-01-15T19:52:30.092Z,99735.44
2023-01-15T19:55:33.686Z,99736.38
2023-01-15T19:58:37.245Z,99731.19
2023-01-15T20:01:40.339Z,99726.16
2023-01-15T20:04:45.627Z,99730.53
2023-01-15T20:07:48.462Z,99735.00
2023-01-15T20:10:51.529Z,99734.13
2023-01-15T20:13:54.645Z,99742.78
2023-01-15T20:16:57.535Z,99741.78
2023-01-15T20:20:00.315Z,99737.81
2023-01-15T20:23:03.268Z,99735.84
2023-01-15T20:26:08.129Z,99740.72
2023-01-15T20:29:11.202Z,99737.81
2023-01-15T20:32:14.201Z,99723.88
2023-01-15T20:35:22.107Z,99728.50
2023-01-15T20:38:25.091Z,99737.22
2023-01-15T20:41:46.920Z,99753.28
2023-01-15T20:44:56.269Z,99752.00
2023-01-15T20:48:14.351Z,99728.50
2023-01-15T20:51:19.704Z,99729.69
2023-01-15T20:54:24.601Z,99725.38
2023-01-15T20:57:27.477Z,99727.59
2023-01-15T21:00:30.844Z,99738.12
2023-01-15T21:03:33.744Z,99739.50
2023-01-15T21:06:36.678Z,99741.22
2023-01-15T21:09:39.509Z,99745.28
2023-01-15T21:12:42.461Z,99730.03
2023-01-15T21:15:45.353Z,99733.28
2023-01-15T21:18:49.172Z,99739.56
2023-01-15T21:21:51.989Z,99734.37
2023-01-15T21:24:54.857Z,99725.94
2023-01-15T21:27:58.143Z,99724.28
2023-01-15T21:31:04.119Z,99728.66
2023-01-15T21:34:07.028Z,99732.19
2023-01-15T21:37:09.903Z,99730.69
2023-01-15T21:40:12.997Z,99729.97
2023-01-15T21:43:37.832Z,99725.72
2023-01-15T21:46:40.593Z,99724.94
2023-01-15T21:49:44.247Z,99716.28
2023-01-15T21:52:48.526Z,99712.81
2023-01-15T21:55:52.221Z,99711.09
2023-01-15T21:58:55.203Z,99706.66
2023-01-15T22:01:59.381Z,99704.03
2023-01-15T22:05:04.040Z,99701.63
2023-01-15T22:08:08.442Z,99691.19
2023-01-15T22:11:11.696Z,99704.13
2023-01-15T22:14:16.351Z,99701.53
2023-01-15T22:17:19.526Z,99705.19
2023-01-15T22:20:22.077Z,99701.63
2023-01-15T22:23:25.380Z,99692.91
2023-01-15T22:26:31.889Z,99687.03
2023-01-15T22:29:39.998Z,99679.13
2023-01-15T22:32:42.671Z,99684.38
2023-01-15T22:35:55.244Z,99680.50
2023-01-15T22:38:57.780Z,99686.38
2023-01-15T22:42:19.710Z,99699.91
2023-01-15T22:45:25.127Z,99696.16
2023-01-15T22:48:28.554Z,99702.06
2023-01-15T22:51:31.154Z,99698.47
2023-01-15T22:54:34.628Z,99701.13
2023-01-15T22:57:37.168Z,99698.47
2023-01-15T23:00:40.509Z,99703.66
2023-01-15T23:03:43.057Z,99708.75
2023-01-15T23:06:46.787Z,99712.25
2023-01-15T23:09:49.313Z,99714.56
2023-01-15T23:12:52.397Z,99712.56
2023-01-15T23:15:59.118Z,99710.69
2023-01-15T23:19:02.940Z,99705.50
2023-01-15T23:22:05.670Z,99699.44
2023-01-15T23:25:09.310Z,99700.31
2023-01-15T23:28:11.827Z,99678.72
2023-01-15T23:31:15.008Z,99669.09
2023-01-15T23:34:17.783Z,99669.62
2023-01-15T23:37:20.846Z,99669.88
2023-01-15T23:40:23.385Z,99649.16
2023-01-15T23:43:45.088Z,99637.72
2023-01-15T23:46:48.255Z,99642.31
2023-01-15T23:49:51.604Z,99675.56
2023-01-15T23:52:54.252Z,99663.53
2023-01-15T23:55:59.011Z,99670.81
2023-01-15T23:59:01.601Z,99664.13
